Tusayan, Arizona
Current Conditions -  °F | °C
As of 8:54 AM on Saturday 25 Oct 2014 (Local Time) from KGCN Reporting Station
Clear Clear  
Wind Chill: 61°   Ceiling: Unl
Heat Index: 61°   Visibility: 10mi
Dew Point: 40°   Wind: 7mph
Humidity: 46%   Direction: 200°SSW
Pressure: 30.35"   Gusts: NA
Location:  36.0547°N, 112.138°W
Report Text: KGCN 251554Z 20006KT 10SM CLR 16/04 A3035 RMK AO2 SLP224 T01610044
Loading
Personal Weather Stations






























Interactive Weather Map
Tropical Storm Tracking
New forecast layout! Learn more

10-Day Weather Forecast

Advertisements
Track Severe Weather on mobile